createdAt,value
2022-08-16T00:01:22.760Z,25.84
2022-08-16T00:03:52.636Z,25.51
2022-08-16T00:06:20.429Z,25.89
2022-08-16T00:08:48.748Z,25.96
2022-08-16T00:11:17.007Z,25.98
2022-08-16T00:13:54.089Z,25.97
2022-08-16T00:17:05.924Z,25.91
2022-08-16T00:19:14.589Z,25.51
2022-08-16T00:21:43.004Z,25.85
2022-08-16T00:24:11.385Z,25.91
2022-08-16T00:26:44.514Z,25.94
2022-08-16T00:29:15.560Z,25.91
2022-08-16T00:31:58.714Z,25.89
2022-08-16T00:34:44.672Z,25.90
2022-08-16T00:37:18.461Z,25.81
2022-08-16T00:39:58.500Z,25.87
2022-08-16T00:42:30.258Z,25.96
2022-08-16T00:45:08.399Z,25.89
2022-08-16T00:47:42.670Z,25.95
2022-08-16T00:50:17.689Z,25.88
2022-08-16T00:52:50.441Z,25.88
2022-08-16T00:55:19.116Z,25.83
2022-08-16T00:58:00.227Z,25.87
2022-08-16T01:00:31.770Z,25.78
2022-08-16T01:03:06.204Z,25.66
2022-08-16T01:05:39.949Z,25.39
2022-08-16T01:08:35.463Z,25.21
2022-08-16T01:10:59.860Z,25.54
2022-08-16T01:13:33.961Z,25.61
2022-08-16T01:16:05.191Z,25.66
2022-08-16T01:18:44.161Z,25.65
2022-08-16T01:21:22.794Z,25.58
2022-08-16T01:24:51.525Z,25.27
2022-08-16T01:27:03.678Z,25.66
2022-08-16T01:29:56.721Z,25.65
2022-08-16T01:32:31.840Z,25.56
2022-08-16T01:35:05.244Z,25.62
2022-08-16T01:37:40.560Z,25.62
2022-08-16T01:40:12.880Z,25.60
2022-08-16T01:42:43.795Z,25.66
2022-08-16T01:45:16.567Z,25.53
2022-08-16T01:47:51.902Z,25.59
2022-08-16T01:50:43.024Z,25.62
2022-08-16T01:53:10.048Z,25.73
2022-08-16T01:55:41.388Z,25.72
2022-08-16T01:58:10.874Z,25.76
2022-08-16T02:00:40.265Z,25.71
2022-08-16T02:03:08.391Z,25.53
2022-08-16T02:05:40.721Z,25.50
2022-08-16T02:08:33.729Z,25.61
2022-08-16T02:11:04.754Z,25.67
2022-08-16T02:13:33.007Z,25.66
2022-08-16T02:16:03.060Z,25.67
2022-08-16T02:18:30.760Z,25.65
2022-08-16T02:20:58.500Z,25.68
2022-08-16T02:23:29.706Z,25.62
2022-08-16T02:25:57.710Z,25.65
2022-08-16T02:28:32.051Z,25.59
2022-08-16T02:31:06.032Z,25.52
2022-08-16T02:33:44.130Z,25.60
2022-08-16T02:36:47.177Z,25.52
2022-08-16T02:39:08.203Z,25.27
2022-08-16T02:41:39.610Z,25.46
2022-08-16T02:44:10.937Z,25.51
2022-08-16T02:46:50.607Z,25.45
2022-08-16T02:49:21.716Z,25.42
2022-08-16T02:51:50.203Z,25.47
2022-08-16T02:54:18.218Z,25.49
2022-08-16T02:56:47.908Z,25.48
2022-08-16T02:59:17.212Z,25.46
2022-08-16T03:01:47.035Z,25.48
2022-08-16T03:04:41.537Z,25.50
2022-08-16T03:07:06.134Z,25.54
2022-08-16T03:09:33.934Z,25.36
2022-08-16T03:12:02.788Z,24.62
2022-08-16T03:14:32.211Z,24.83
2022-08-16T03:17:01.921Z,24.76
2022-08-16T03:19:48.134Z,24.64
2022-08-16T03:22:28.392Z,24.79
2022-08-16T03:25:03.046Z,24.85
2022-08-16T03:27:33.828Z,25.03
2022-08-16T03:30:17.307Z,24.36
2022-08-16T03:32:47.204Z,24.47
2022-08-16T03:35:17.500Z,24.35
2022-08-16T03:38:02.157Z,24.46
2022-08-16T03:40:33.859Z,24.19
2022-08-16T03:43:19.866Z,24.03
2022-08-16T03:45:52.896Z,24.23
2022-08-16T03:48:37.019Z,23.84
2022-08-16T03:51:10.052Z,23.91
2022-08-16T03:53:40.792Z,23.59
2022-08-16T03:56:19.734Z,24.36
2022-08-16T03:58:50.639Z,24.43
2022-08-16T04:01:20.736Z,24.47
2022-08-16T04:03:48.487Z,24.43
2022-08-16T04:06:17.952Z,24.22
2022-08-16T04:08:45.925Z,24.10
2022-08-16T04:11:16.351Z,24.25
2022-08-16T04:13:59.198Z,24.30
2022-08-16T04:16:35.905Z,24.67
2022-08-16T04:19:04.543Z,24.70
2022-08-16T04:21:33.463Z,24.76
2022-08-16T04:24:03.098Z,24.89
2022-08-16T04:26:32.314Z,24.89
2022-08-16T04:29:17.065Z,24.90
2022-08-16T04:31:56.576Z,24.76
2022-08-16T04:34:28.626Z,24.58
2022-08-16T04:36:57.923Z,24.45
2022-08-16T04:39:37.166Z,24.76
2022-08-16T04:42:14.610Z,24.81
2022-08-16T04:44:54.120Z,24.89
2022-08-16T04:47:33.187Z,24.81
2022-08-16T04:50:05.897Z,24.42
2022-08-16T04:52:36.090Z,24.46
2022-08-16T04:55:09.535Z,24.50
2022-08-16T04:57:41.455Z,24.16
2022-08-16T05:00:32.531Z,24.36
2022-08-16T05:03:07.720Z,24.31
2022-08-16T05:05:45.453Z,24.11
2022-08-16T05:08:27.994Z,24.49
2022-08-16T05:10:58.932Z,24.60
2022-08-16T05:13:40.958Z,24.64
2022-08-16T05:16:19.986Z,24.56
2022-08-16T05:18:52.460Z,24.67
2022-08-16T05:21:21.664Z,24.30
2022-08-16T05:23:51.566Z,24.60
2022-08-16T05:26:27.783Z,24.61
2022-08-16T05:28:57.077Z,24.60
2022-08-16T05:31:29.741Z,24.39
2022-08-16T05:34:01.027Z,24.54
2022-08-16T05:36:36.863Z,24.49
2022-08-16T05:39:07.832Z,24.61
2022-08-16T05:41:45.580Z,24.25
2022-08-16T05:44:24.107Z,23.79
2022-08-16T05:46:54.698Z,23.90
2022-08-16T05:49:25.154Z,23.78
2022-08-16T05:51:54.963Z,23.62
2022-08-16T05:54:25.622Z,23.74
2022-08-16T05:56:54.303Z,23.86
2022-08-16T05:59:24.145Z,23.95
2022-08-16T06:01:52.017Z,24.06
2022-08-16T06:04:35.098Z,23.85
2022-08-16T06:07:08.234Z,23.95
2022-08-16T06:09:43.523Z,23.92
2022-08-16T06:12:26.930Z,24.12
2022-08-16T06:14:59.734Z,23.91
2022-08-16T06:17:41.203Z,23.71
2022-08-16T06:20:14.492Z,24.01
2022-08-16T06:22:45.146Z,24.07
2022-08-16T06:25:15.809Z,23.96
2022-08-16T06:27:57.137Z,24.37
2022-08-16T06:30:28.941Z,24.27
2022-08-16T06:32:56.716Z,24.35
2022-08-16T06:35:24.749Z,24.29
2022-08-16T06:37:53.857Z,24.06
2022-08-16T06:40:24.957Z,24.26
2022-08-16T06:43:01.690Z,24.24
2022-08-16T06:45:29.945Z,24.37
2022-08-16T06:47:57.692Z,24.29
2022-08-16T06:50:29.423Z,24.46
2022-08-16T06:53:00.682Z,24.36
2022-08-16T06:55:35.340Z,24.35
2022-08-16T06:58:08.387Z,24.50
2022-08-16T07:00:37.608Z,24.37
2022-08-16T07:03:27.169Z,24.31
2022-08-16T07:05:54.393Z,24.51
2022-08-16T07:08:23.924Z,24.46
2022-08-16T07:10:55.475Z,24.62
2022-08-16T07:13:58.831Z,24.35
2022-08-16T07:16:15.256Z,24.85
2022-08-16T07:18:58.743Z,24.80
2022-08-16T07:21:45.603Z,24.74
2022-08-16T07:24:29.871Z,24.36
2022-08-16T07:26:59.160Z,24.60
2022-08-16T07:29:31.669Z,24.73
2022-08-16T07:32:00.742Z,24.61
2022-08-16T07:34:35.372Z,24.54
2022-08-16T07:37:07.860Z,24.59
2022-08-16T07:39:43.095Z,24.59
2022-08-16T07:42:26.033Z,24.65
2022-08-16T07:44:59.595Z,24.65
2022-08-16T07:47:31.641Z,25.04
2022-08-16T07:49:59.884Z,25.03
2022-08-16T07:52:29.684Z,25.00
2022-08-16T07:54:59.420Z,25.08
2022-08-16T07:57:27.140Z,25.18
2022-08-16T07:59:57.413Z,25.05
2022-08-16T08:02:27.468Z,25.09
2022-08-16T08:04:55.789Z,25.42
2022-08-16T08:07:28.078Z,25.39
2022-08-16T08:09:56.606Z,25.56
2022-08-16T08:12:31.250Z,25.41
2022-08-16T08:15:02.826Z,25.47
2022-08-16T08:17:43.256Z,25.56
2022-08-16T08:20:20.073Z,25.65
2022-08-16T08:23:00.839Z,25.59
2022-08-16T08:25:52.764Z,25.68
2022-08-16T08:28:20.036Z,25.66
2022-08-16T08:30:51.075Z,25.92
2022-08-16T08:33:31.290Z,25.95
2022-08-16T08:36:00.932Z,25.92
2022-08-16T08:38:44.065Z,26.05
2022-08-16T08:41:15.138Z,26.21
2022-08-16T08:43:44.208Z,26.63
2022-08-16T08:46:18.107Z,26.38
2022-08-16T08:48:59.185Z,26.72
2022-08-16T08:51:31.897Z,26.44
2022-08-16T08:54:00.624Z,26.57
2022-08-16T08:56:29.896Z,26.53
2022-08-16T08:59:13.091Z,26.70
2022-08-16T09:01:57.311Z,26.60
2022-08-16T09:04:27.115Z,26.68
2022-08-16T09:06:54.998Z,26.44
2022-08-16T09:09:22.908Z,26.71
2022-08-16T09:11:53.626Z,26.83
2022-08-16T09:14:34.026Z,26.87
2022-08-16T09:17:21.547Z,26.61
2022-08-16T09:19:55.152Z,26.34
2022-08-16T09:22:25.209Z,26.45
2022-08-16T09:24:58.158Z,26.19
2022-08-16T09:27:57.098Z,26.13
2022-08-16T09:30:34.514Z,26.20
2022-08-16T09:33:07.479Z,26.29
2022-08-16T09:35:37.538Z,26.46
2022-08-16T09:38:08.759Z,26.13
2022-08-16T09:40:42.391Z,26.21
2022-08-16T09:43:44.742Z,25.85
2022-08-16T09:46:03.563Z,26.05
2022-08-16T09:48:52.835Z,26.06
2022-08-16T09:51:26.150Z,26.24
2022-08-16T09:53:58.624Z,26.26
2022-08-16T09:56:28.733Z,26.58
2022-08-16T09:59:03.674Z,26.38
2022-08-16T10:01:36.176Z,26.56
2022-08-16T10:04:14.049Z,26.88
2022-08-16T10:06:54.192Z,27.15
2022-08-16T10:09:53.954Z,27.21
2022-08-16T10:12:34.019Z,27.34
2022-08-16T10:15:03.084Z,27.30
2022-08-16T10:20:05.964Z,27.23
2022-08-16T10:22:33.652Z,27.39
2022-08-16T10:25:02.633Z,27.48
2022-08-16T10:27:46.892Z,27.71
2022-08-16T10:30:24.775Z,27.72
2022-08-16T10:32:55.418Z,27.75
2022-08-16T10:35:23.206Z,27.72
2022-08-16T10:37:52.456Z,27.77
2022-08-16T10:40:28.510Z,27.98
2022-08-16T10:42:59.838Z,27.89
2022-08-16T10:45:28.396Z,27.89
2022-08-16T10:48:27.543Z,28.06
2022-08-16T10:50:58.603Z,28.08
2022-08-16T10:53:27.703Z,28.37
2022-08-16T10:56:02.511Z,28.33
2022-08-16T10:58:34.436Z,28.31
2022-08-16T11:03:54.467Z,28.30
2022-08-16T11:06:26.858Z,28.43
2022-08-16T11:14:34.213Z,28.37
2022-08-16T11:17:10.721Z,28.44
2022-08-16T11:22:47.580Z,28.81
2022-08-16T11:28:08.801Z,28.82
2022-08-16T11:30:38.996Z,28.98
2022-08-16T11:33:08.846Z,29.01
2022-08-16T11:35:44.535Z,28.91
2022-08-16T11:38:46.394Z,28.79
2022-08-16T11:41:03.392Z,28.98
2022-08-16T11:43:33.419Z,29.26
2022-08-16T11:46:44.212Z,29.23
2022-08-16T11:48:51.655Z,29.50
2022-08-16T11:51:20.688Z,29.19
2022-08-16T11:53:48.431Z,29.12
2022-08-16T11:56:16.117Z,28.99
2022-08-16T11:58:57.762Z,29.04
2022-08-16T12:01:29.642Z,29.19
2022-08-16T12:04:13.504Z,29.02
2022-08-16T12:06:42.619Z,29.29
2022-08-16T12:09:12.588Z,29.33
2022-08-16T12:11:43.798Z,29.06
2022-08-16T12:14:15.035Z,29.15
2022-08-16T12:16:48.806Z,29.02
2022-08-16T12:19:35.454Z,28.85
2022-08-16T12:22:19.869Z,29.00
2022-08-16T12:24:51.186Z,28.99
2022-08-16T12:27:23.036Z,29.12
2022-08-16T12:29:52.129Z,29.03
2022-08-16T12:32:37.390Z,29.36
2022-08-16T12:35:08.455Z,29.47
2022-08-16T12:37:37.607Z,29.45
2022-08-16T12:40:19.796Z,29.52
2022-08-16T12:42:54.166Z,29.79
2022-08-16T12:45:24.320Z,29.39
2022-08-16T12:48:32.587Z,29.50
2022-08-16T12:50:58.790Z,29.35
2022-08-16T12:53:32.034Z,29.28
2022-08-16T12:56:00.442Z,29.37
2022-08-16T12:58:47.847Z,29.23
2022-08-16T13:01:16.091Z,29.20
2022-08-16T13:03:45.139Z,28.75
2022-08-16T13:06:13.057Z,28.79
2022-08-16T13:08:49.395Z,28.80
2022-08-16T13:11:20.455Z,28.45
2022-08-16T13:13:54.794Z,28.53
2022-08-16T13:16:24.874Z,28.48
2022-08-16T13:18:54.566Z,28.59
2022-08-16T13:21:23.424Z,28.80
2022-08-16T13:23:55.149Z,28.67
2022-08-16T13:26:24.242Z,28.69
2022-08-16T13:28:54.427Z,28.53
2022-08-16T13:31:23.878Z,28.54
2022-08-16T13:33:51.946Z,28.47
2022-08-16T13:36:48.021Z,28.61
2022-08-16T13:39:15.865Z,28.65
2022-08-16T13:41:43.959Z,28.73
2022-08-16T13:44:21.400Z,28.75
2022-08-16T13:46:49.823Z,28.73
2022-08-16T13:49:18.610Z,28.77
2022-08-16T13:51:48.363Z,28.84
2022-08-16T13:56:50.004Z,28.95
2022-08-16T13:59:21.120Z,28.88
2022-08-16T14:01:55.004Z,28.98
2022-08-16T14:04:26.683Z,29.05
2022-08-16T14:06:56.335Z,29.05
2022-08-16T14:09:27.196Z,29.02
2022-08-16T14:11:56.223Z,28.92
2022-08-16T14:14:28.321Z,29.04
2022-08-16T14:16:58.712Z,29.00
2022-08-16T14:19:27.918Z,28.99
2022-08-16T14:22:14.553Z,28.99
2022-08-16T14:24:50.505Z,29.00
2022-08-16T14:27:18.716Z,29.11
2022-08-16T14:29:49.043Z,29.07
2022-08-16T14:32:34.081Z,29.04
2022-08-16T14:35:03.606Z,28.87
2022-08-16T14:37:32.106Z,28.86
2022-08-16T14:40:04.065Z,28.93
2022-08-16T14:42:33.766Z,29.09
2022-08-16T14:45:06.016Z,29.03
2022-08-16T14:47:36.950Z,28.91
2022-08-16T14:50:05.773Z,28.81
2022-08-16T14:55:23.263Z,29.04
2022-08-16T14:57:52.738Z,28.93
2022-08-16T15:00:33.167Z,28.93
2022-08-16T15:03:03.416Z,28.98
2022-08-16T15:05:32.924Z,28.98
2022-08-16T15:08:01.114Z,28.94
2022-08-16T15:10:31.906Z,28.72
2022-08-16T15:13:01.257Z,28.72
2022-08-16T15:15:31.444Z,28.43
2022-08-16T15:18:01.738Z,28.59
2022-08-16T15:20:33.267Z,28.45
2022-08-16T15:23:03.423Z,28.32
2022-08-16T15:25:36.063Z,28.18
2022-08-16T15:28:24.042Z,28.21
2022-08-16T15:31:00.890Z,28.31
2022-08-16T15:33:32.609Z,28.23
2022-08-16T15:36:00.565Z,28.01
2022-08-16T15:38:56.981Z,27.95
2022-08-16T15:41:53.738Z,27.86
2022-08-16T15:44:23.709Z,27.84
2022-08-16T15:46:56.549Z,27.47
2022-08-16T15:49:37.961Z,27.59
2022-08-16T15:52:16.130Z,27.80
2022-08-16T15:54:55.222Z,27.68
2022-08-16T15:57:25.881Z,27.59
2022-08-16T15:59:56.419Z,27.74
2022-08-16T16:02:33.345Z,28.12
2022-08-16T16:05:03.115Z,28.13
2022-08-16T16:07:33.660Z,27.89
2022-08-16T16:10:03.591Z,27.80
2022-08-16T16:12:50.825Z,27.66
2022-08-16T16:15:23.106Z,28.03
2022-08-16T16:17:52.976Z,27.71
2022-08-16T16:20:21.989Z,27.99
2022-08-16T16:22:52.678Z,28.28
2022-08-16T16:25:21.203Z,28.42
2022-08-16T16:27:55.859Z,28.71
2022-08-16T16:30:37.139Z,28.57
2022-08-16T16:33:15.633Z,28.70
2022-08-16T16:35:55.151Z,28.78
2022-08-16T16:38:25.324Z,28.81
2022-08-16T16:40:54.827Z,28.72
2022-08-16T16:43:25.786Z,28.79
2022-08-16T16:45:53.892Z,28.94
2022-08-16T16:48:22.412Z,28.67
2022-08-16T16:50:57.947Z,28.95
2022-08-16T16:53:26.201Z,28.95
2022-08-16T16:55:59.681Z,28.58
2022-08-16T16:58:53.474Z,28.58
2022-08-16T17:01:34.902Z,28.46
2022-08-16T17:04:19.382Z,28.70
2022-08-16T17:06:53.414Z,28.63
2022-08-16T17:09:25.149Z,28.73
2022-08-16T17:11:55.364Z,28.90
2022-08-16T17:14:32.708Z,28.95
2022-08-16T17:17:06.404Z,29.03
2022-08-16T17:19:34.483Z,28.98
2022-08-16T17:22:14.414Z,28.92
2022-08-16T17:24:50.910Z,28.84
2022-08-16T17:27:33.192Z,28.88
2022-08-16T17:30:14.911Z,28.91
2022-08-16T17:32:48.758Z,28.90
2022-08-16T17:35:21.795Z,28.90
2022-08-16T17:37:54.563Z,28.91
2022-08-16T17:40:40.312Z,28.80
2022-08-16T17:43:13.256Z,28.87
2022-08-16T17:45:43.341Z,28.83
2022-08-16T17:48:11.391Z,28.83
2022-08-16T17:50:40.078Z,28.79
2022-08-16T17:53:08.834Z,28.78
2022-08-16T17:55:38.358Z,28.82
2022-08-16T17:58:20.987Z,28.76
2022-08-16T18:00:54.583Z,28.74
2022-08-16T18:04:03.219Z,28.71
2022-08-16T18:06:16.386Z,28.65
2022-08-16T18:08:44.188Z,28.66
2022-08-16T18:11:13.242Z,28.64
2022-08-16T18:13:42.877Z,28.62
2022-08-16T18:16:13.876Z,28.60
2022-08-16T18:18:41.580Z,28.59
2022-08-16T18:21:27.048Z,28.64
2022-08-16T18:23:54.823Z,28.54
2022-08-16T18:26:22.593Z,28.49
2022-08-16T18:28:50.426Z,28.46
2022-08-16T18:31:19.912Z,28.51
2022-08-16T18:33:47.676Z,28.44
2022-08-16T18:36:20.608Z,28.46
2022-08-16T18:38:49.417Z,28.36
2022-08-16T18:41:17.526Z,28.39
2022-08-16T18:44:23.246Z,28.36
2022-08-16T18:46:34.351Z,28.29
2022-08-16T18:49:03.033Z,27.51
2022-08-16T18:51:31.569Z,27.38
2022-08-16T18:53:59.357Z,27.57
2022-08-16T18:56:57.565Z,27.64
2022-08-16T18:59:15.020Z,27.99
2022-08-16T19:01:44.116Z,28.09
2022-08-16T19:04:55.628Z,28.11
2022-08-16T19:06:59.480Z,28.07
2022-08-16T19:09:27.412Z,28.02
2022-08-16T19:11:57.533Z,28.11
2022-08-16T19:14:29.900Z,28.15
2022-08-16T19:16:58.912Z,28.04
2022-08-16T19:19:26.686Z,28.04
2022-08-16T19:21:54.421Z,28.09
2022-08-16T19:24:22.208Z,28.06
2022-08-16T19:26:57.084Z,28.01
2022-08-16T19:29:26.496Z,28.03
2022-08-16T19:31:54.313Z,27.40
2022-08-16T19:34:23.552Z,27.90
2022-08-16T19:36:54.094Z,27.94
2022-08-16T19:39:21.992Z,28.01
2022-08-16T19:41:53.569Z,27.99
2022-08-16T19:44:22.518Z,28.07
2022-08-16T19:46:52.044Z,28.00
2022-08-16T19:49:19.793Z,28.01
2022-08-16T19:51:49.256Z,27.96
2022-08-16T19:54:17.740Z,27.97
2022-08-16T19:56:45.447Z,27.99
2022-08-16T19:59:39.367Z,28.00
2022-08-16T20:02:04.597Z,27.95
2022-08-16T20:04:32.666Z,27.96
2022-08-16T20:07:02.977Z,27.87
2022-08-16T20:09:33.069Z,27.89
2022-08-16T20:12:06.382Z,27.86
2022-08-16T20:14:35.692Z,27.83
2022-08-16T20:17:04.127Z,27.66
2022-08-16T20:19:36.102Z,27.60
2022-08-16T20:22:42.073Z,27.68
2022-08-16T20:25:12.058Z,27.68
2022-08-16T20:27:40.132Z,27.61
2022-08-16T20:30:11.180Z,27.60
2022-08-16T20:32:38.892Z,27.61
2022-08-16T20:35:11.449Z,27.58
2022-08-16T20:37:42.461Z,27.53
2022-08-16T20:40:28.519Z,27.52
2022-08-16T20:43:04.527Z,27.49
2022-08-16T20:45:32.530Z,27.46
2022-08-16T20:48:00.333Z,27.42
2022-08-16T20:50:30.116Z,27.36
2022-08-16T20:52:59.381Z,27.42
2022-08-16T20:55:31.254Z,27.29
2022-08-16T20:57:58.940Z,27.34
2022-08-16T21:00:28.840Z,27.28
2022-08-16T21:02:57.054Z,27.29
2022-08-16T21:05:27.905Z,27.29
2022-08-16T21:08:00.323Z,27.28
2022-08-16T21:10:28.111Z,27.27
2022-08-16T21:12:58.352Z,27.25
2022-08-16T21:15:28.168Z,27.19
2022-08-16T21:17:55.912Z,27.18
2022-08-16T21:20:25.315Z,27.19
2022-08-16T21:22:54.851Z,27.18
2022-08-16T21:25:24.649Z,27.15
2022-08-16T21:28:40.921Z,27.13
2022-08-16T21:30:41.326Z,26.98
2022-08-16T21:33:12.706Z,26.99
2022-08-16T21:35:41.816Z,26.99
2022-08-16T21:38:29.275Z,27.00
2022-08-16T21:40:59.439Z,26.98
2022-08-16T21:43:31.561Z,26.95
2022-08-16T21:46:00.328Z,26.85
2022-08-16T21:48:35.078Z,26.86
2022-08-16T21:51:05.841Z,26.70
2022-08-16T21:53:33.774Z,26.78
2022-08-16T21:56:03.109Z,26.82
2022-08-16T21:58:31.348Z,26.78
2022-08-16T22:00:59.159Z,26.77
2022-08-16T22:03:26.902Z,26.72
2022-08-16T22:06:11.843Z,26.67
2022-08-16T22:08:50.581Z,26.68
2022-08-16T22:11:24.023Z,26.62
2022-08-16T22:13:57.897Z,26.64
2022-08-16T22:16:28.076Z,26.65
2022-08-16T22:18:55.944Z,26.66
2022-08-16T22:21:23.740Z,26.65
2022-08-16T22:23:57.736Z,26.63
2022-08-16T22:26:30.780Z,26.60
2022-08-16T22:29:00.293Z,26.61
2022-08-16T22:31:28.479Z,26.56
2022-08-16T22:33:57.168Z,26.29
2022-08-16T22:36:28.759Z,26.47
2022-08-16T22:38:58.825Z,26.55
2022-08-16T22:41:31.689Z,26.51
2022-08-16T22:43:59.526Z,26.60
2022-08-16T22:46:27.428Z,26.34
2022-08-16T22:48:55.376Z,25.71
2022-08-16T22:51:25.145Z,26.12
2022-08-16T22:53:53.806Z,25.81
2022-08-16T22:56:22.631Z,25.84
2022-08-16T22:58:52.004Z,25.54
2022-08-16T23:01:21.289Z,25.48
2022-08-16T23:03:49.114Z,25.79
2022-08-16T23:06:17.380Z,25.32
2022-08-16T23:08:45.266Z,25.70
2022-08-16T23:11:20.241Z,25.90
2022-08-16T23:13:53.565Z,25.95
2022-08-16T23:16:33.009Z,26.07
2022-08-16T23:19:02.154Z,26.14
2022-08-16T23:21:29.942Z,26.08
2022-08-16T23:23:58.189Z,26.13
2022-08-16T23:26:44.924Z,26.16
2022-08-16T23:29:22.232Z,26.17
2022-08-16T23:31:53.700Z,26.18
2022-08-16T23:34:21.716Z,26.15
2022-08-16T23:36:49.425Z,26.17
2022-08-16T23:39:17.192Z,26.15
2022-08-16T23:41:44.917Z,26.14
2022-08-16T23:44:55.537Z,26.17
2022-08-16T23:47:03.097Z,26.19
2022-08-16T23:49:58.038Z,26.12
2022-08-16T23:52:18.908Z,26.03
2022-08-16T23:55:07.516Z,25.98
2022-08-16T23:57:35.216Z,26.00
